createdAt,value
2023-01-30T00:01:18.082Z,18.60
2023-01-30T00:03:44.979Z,19.65
2023-01-30T00:06:12.087Z,20.35
2023-01-30T00:11:07.166Z,18.75
2023-01-30T00:13:34.175Z,20.70
2023-01-30T00:16:01.225Z,20.17
2023-01-30T00:20:59.712Z,18.42
2023-01-30T00:23:27.682Z,21.65
2023-01-30T00:25:54.930Z,20.08
2023-01-30T00:28:22.211Z,20.15
2023-01-30T00:30:53.342Z,21.13
2023-01-30T00:33:22.529Z,21.38
2023-01-30T00:35:53.269Z,21.27
2023-01-30T00:38:20.894Z,20.55
2023-01-30T00:40:48.586Z,20.60
2023-01-30T00:43:37.063Z,21.23
2023-01-30T00:46:28.508Z,21.05
2023-01-30T00:48:55.364Z,20.92
2023-01-30T00:51:22.208Z,22.48
2023-01-30T00:53:48.987Z,21.58
2023-01-30T00:56:15.713Z,20.13
2023-01-30T00:58:42.456Z,21.90
2023-01-30T01:01:11.336Z,19.92
2023-01-30T01:03:38.120Z,20.92
2023-01-30T01:06:05.190Z,20.85
2023-01-30T01:08:32.298Z,21.38
2023-01-30T01:10:59.082Z,19.65
2023-01-30T01:13:25.987Z,19.15
2023-01-30T01:15:52.725Z,21.55
2023-01-30T01:18:19.519Z,21.40
2023-01-30T01:20:46.963Z,20.38
2023-01-30T01:25:41.315Z,21.40
2023-01-30T01:28:08.126Z,21.25
2023-01-30T01:30:35.674Z,21.83
2023-01-30T01:33:02.416Z,20.90
2023-01-30T01:35:29.106Z,23.30
2023-01-30T01:37:56.803Z,21.13
2023-01-30T01:40:42.394Z,21.70
2023-01-30T01:43:18.566Z,23.05
2023-01-30T01:45:48.619Z,20.80
2023-01-30T01:48:24.662Z,18.60
2023-01-30T01:51:24.449Z,19.40
2023-01-30T01:54:00.303Z,21.73
2023-01-30T01:56:27.529Z,22.15
2023-01-30T02:01:23.713Z,21.23
2023-01-30T02:03:57.502Z,22.92
2023-01-30T02:06:24.484Z,21.77
2023-01-30T02:08:56.038Z,22.08
2023-01-30T02:11:38.039Z,22.60
2023-01-30T02:14:05.959Z,23.17
2023-01-30T02:16:32.764Z,24.60
2023-01-30T02:18:59.683Z,22.95
2023-01-30T02:21:51.730Z,22.95
2023-01-30T02:24:36.610Z,22.73
2023-01-30T02:28:08.251Z,23.58
2023-01-30T02:31:02.664Z,22.30
2023-01-30T02:33:47.081Z,22.23
2023-01-30T02:36:17.754Z,24.70
2023-01-30T02:38:59.781Z,23.25
2023-01-30T02:41:45.324Z,38.88
2023-01-30T02:44:21.926Z,30.45
2023-01-30T02:47:00.291Z,43.17
2023-01-30T02:49:34.733Z,36.20
2023-01-30T02:52:03.463Z,32.47
2023-01-30T02:54:32.147Z,36.03
2023-01-30T02:57:00.415Z,33.80
2023-01-30T02:59:37.729Z,54.50
2023-01-30T03:02:17.508Z,49.85
2023-01-30T03:05:02.777Z,38.97
2023-01-30T03:07:42.381Z,48.22
2023-01-30T03:10:33.819Z,51.55
2023-01-30T03:13:26.788Z,68.90
2023-01-30T03:15:59.984Z,41.20
2023-01-30T03:18:26.890Z,46.70
2023-01-30T03:20:54.108Z,56.55
2023-01-30T03:25:48.995Z,70.88
2023-01-30T03:28:19.980Z,44.17
2023-01-30T03:30:46.922Z,45.38
2023-01-30T03:33:14.158Z,41.13
2023-01-30T03:35:46.659Z,54.03
2023-01-30T03:38:14.699Z,49.55
2023-01-30T03:40:41.579Z,64.95
2023-01-30T03:43:09.104Z,48.28
2023-01-30T03:45:38.014Z,45.92
2023-01-30T03:48:05.354Z,37.60
2023-01-30T03:50:32.681Z,52.08
2023-01-30T03:53:00.563Z,46.72
2023-01-30T03:55:27.290Z,45.15
2023-01-30T03:57:57.997Z,60.10
2023-01-30T04:00:27.926Z,43.00
2023-01-30T04:02:57.265Z,46.25
2023-01-30T04:05:24.397Z,45.25
2023-01-30T04:07:59.807Z,38.88
2023-01-30T04:10:27.344Z,43.05
2023-01-30T04:12:54.326Z,53.90
2023-01-30T04:15:22.284Z,38.67
2023-01-30T04:18:02.052Z,48.35
2023-01-30T04:20:58.069Z,47.53
2023-01-30T04:23:32.172Z,60.03
2023-01-30T04:25:58.978Z,37.22
2023-01-30T04:28:26.064Z,57.53
2023-01-30T04:30:53.747Z,49.13
2023-01-30T04:33:40.212Z,54.63
2023-01-30T04:36:09.558Z,41.40
2023-01-30T04:38:37.325Z,36.33
2023-01-30T04:41:05.599Z,42.40
2023-01-30T04:43:35.529Z,43.10
2023-01-30T04:46:14.629Z,44.60
2023-01-30T04:48:44.468Z,45.58
2023-01-30T04:51:11.533Z,40.80
2023-01-30T04:56:06.048Z,44.10
2023-01-30T04:58:32.831Z,40.92
2023-01-30T05:01:14.303Z,37.03
2023-01-30T05:03:41.093Z,44.95
2023-01-30T05:06:12.068Z,45.97
2023-01-30T05:08:38.803Z,43.00
2023-01-30T05:11:06.681Z,39.38
2023-01-30T05:16:00.014Z,33.17
2023-01-30T05:18:26.808Z,55.42
2023-01-30T05:20:53.507Z,40.30
2023-01-30T05:23:20.260Z,32.70
2023-01-30T05:25:46.961Z,31.10
2023-01-30T05:28:13.741Z,32.83
2023-01-30T05:30:40.550Z,43.40
2023-01-30T05:33:07.327Z,40.47
2023-01-30T05:35:34.018Z,48.55
2023-01-30T05:38:02.262Z,37.22
2023-01-30T05:40:29.160Z,30.20
2023-01-30T05:42:56.028Z,47.35
2023-01-30T05:45:22.802Z,38.85
2023-01-30T05:47:56.303Z,33.78
2023-01-30T05:50:23.410Z,25.20
2023-01-30T05:52:50.136Z,31.48
2023-01-30T05:55:17.276Z,35.17
2023-01-30T06:00:11.328Z,32.42
2023-01-30T06:02:40.910Z,28.08
2023-01-30T06:05:08.334Z,35.15
2023-01-30T06:07:35.025Z,33.58
2023-01-30T06:10:01.744Z,15.07
2023-01-30T06:12:28.493Z,19.92
2023-01-30T06:14:55.269Z,22.10
2023-01-30T06:17:21.974Z,16.13
2023-01-30T06:19:48.729Z,8.18
2023-01-30T06:22:15.418Z,22.25
2023-01-30T06:24:42.156Z,31.08
2023-01-30T06:27:08.907Z,31.90
2023-01-30T06:29:35.673Z,33.42
2023-01-30T06:32:02.756Z,16.50
2023-01-30T06:36:56.298Z,37.40
2023-01-30T06:39:23.070Z,32.03
2023-01-30T06:41:50.107Z,30.05
2023-01-30T06:46:43.405Z,23.02
2023-01-30T06:49:10.229Z,30.23
2023-01-30T06:51:37.023Z,26.45
2023-01-30T06:54:03.859Z,38.38
2023-01-30T06:56:30.651Z,28.50
2023-01-30T06:58:57.482Z,40.63
2023-01-30T07:01:24.193Z,32.45
2023-01-30T07:03:51.076Z,30.85
2023-01-30T07:06:17.812Z,22.45
2023-01-30T07:08:44.596Z,23.30
2023-01-30T07:11:11.681Z,24.70
2023-01-30T07:13:38.436Z,23.98
2023-01-30T07:16:05.415Z,23.02
2023-01-30T07:20:58.864Z,22.50
2023-01-30T07:23:25.608Z,21.67
2023-01-30T07:25:52.367Z,24.45
2023-01-30T07:28:19.290Z,22.05
2023-01-30T07:30:46.097Z,26.13
2023-01-30T07:33:13.116Z,21.73
2023-01-30T07:35:39.826Z,24.60
2023-01-30T07:38:06.690Z,25.30
2023-01-30T07:40:33.516Z,27.27
2023-01-30T07:45:40.997Z,20.60
2023-01-30T07:48:12.722Z,19.80
2023-01-30T07:50:39.886Z,20.30
2023-01-30T07:53:09.036Z,20.25
2023-01-30T07:55:36.166Z,21.05
2023-01-30T07:58:03.374Z,20.70
2023-01-30T08:02:56.856Z,20.55
2023-01-30T08:05:23.819Z,23.50
2023-01-30T08:07:50.500Z,22.65
2023-01-30T08:10:17.707Z,24.02
2023-01-30T08:12:44.663Z,23.05
2023-01-30T08:15:11.497Z,25.13
2023-01-30T08:17:38.255Z,23.13
2023-01-30T08:20:05.757Z,23.13
2023-01-30T08:22:32.504Z,25.55
2023-01-30T08:24:59.640Z,22.55
2023-01-30T08:27:26.432Z,22.55
2023-01-30T08:29:53.213Z,23.95
2023-01-30T08:32:19.902Z,23.45
2023-01-30T08:34:46.737Z,22.77
2023-01-30T08:37:13.738Z,20.40
2023-01-30T08:39:40.446Z,21.25
2023-01-30T08:42:07.228Z,24.20
2023-01-30T08:44:33.904Z,23.67
2023-01-30T08:47:00.670Z,24.13
2023-01-30T08:49:27.439Z,21.15
2023-01-30T08:51:54.204Z,23.25
2023-01-30T08:54:21.014Z,24.80
2023-01-30T08:56:47.804Z,23.75
2023-01-30T08:59:14.530Z,30.73
2023-01-30T09:01:41.338Z,43.38
2023-01-30T09:04:08.061Z,37.63
2023-01-30T09:06:34.885Z,27.95
2023-01-30T09:09:01.654Z,26.42
2023-01-30T09:11:28.434Z,25.88
2023-01-30T09:13:55.244Z,28.67
2023-01-30T09:16:22.052Z,28.85
2023-01-30T09:18:48.875Z,27.75
2023-01-30T09:21:15.738Z,21.92
2023-01-30T09:23:42.511Z,26.17
2023-01-30T09:26:09.320Z,30.33
2023-01-30T09:28:36.188Z,29.02
2023-01-30T09:31:03.302Z,33.42
2023-01-30T09:35:57.116Z,27.60
2023-01-30T09:38:23.884Z,27.95
2023-01-30T09:40:59.551Z,34.42
2023-01-30T09:43:47.505Z,25.75
2023-01-30T09:46:31.762Z,24.85
2023-01-30T09:49:37.963Z,21.77
2023-01-30T09:52:10.837Z,18.33
2023-01-30T09:54:42.480Z,18.92
2023-01-30T09:57:21.845Z,17.58
2023-01-30T09:59:54.558Z,16.70
2023-01-30T10:02:34.070Z,16.45
2023-01-30T10:05:03.119Z,16.25
2023-01-30T10:07:43.018Z,16.23
2023-01-30T10:10:10.480Z,17.65
2023-01-30T10:12:45.014Z,17.35
2023-01-30T10:15:25.328Z,17.35
2023-01-30T10:18:08.137Z,16.38
2023-01-30T10:21:21.988Z,17.30
2023-01-30T10:23:58.840Z,17.77
2023-01-30T10:26:27.901Z,18.07
2023-01-30T10:29:07.587Z,15.80
2023-01-30T10:31:51.024Z,18.35
2023-01-30T10:34:27.156Z,17.83
2023-01-30T10:37:18.985Z,16.98
2023-01-30T10:39:55.213Z,15.02
2023-01-30T10:42:37.577Z,16.85
2023-01-30T10:45:15.946Z,18.50
2023-01-30T10:48:23.306Z,17.60
2023-01-30T10:51:04.072Z,17.52
2023-01-30T10:54:08.398Z,16.42
2023-01-30T10:56:54.181Z,16.58
2023-01-30T10:59:59.577Z,16.13
2023-01-30T11:02:57.241Z,16.85
2023-01-30T11:05:50.273Z,15.15
2023-01-30T11:08:22.458Z,16.23
2023-01-30T11:10:50.728Z,16.00
2023-01-30T11:13:25.172Z,16.63
2023-01-30T11:15:55.723Z,16.83
2023-01-30T11:21:27.027Z,20.70
2023-01-30T11:24:06.175Z,17.38
2023-01-30T11:26:46.890Z,16.38
2023-01-30T11:29:32.727Z,15.68
2023-01-30T11:32:27.772Z,18.10
2023-01-30T11:35:20.572Z,17.08
2023-01-30T11:37:47.475Z,17.35
2023-01-30T11:40:28.395Z,17.55
2023-01-30T11:43:12.960Z,16.85
2023-01-30T11:45:46.466Z,19.58
2023-01-30T11:48:32.993Z,20.15
2023-01-30T11:51:10.704Z,18.00
2023-01-30T11:53:44.816Z,18.48
2023-01-30T11:56:20.475Z,19.50
2023-01-30T11:58:58.831Z,19.35
2023-01-30T12:01:32.087Z,21.42
2023-01-30T12:04:00.124Z,19.88
2023-01-30T12:06:36.721Z,18.48
2023-01-30T12:09:04.309Z,20.92
2023-01-30T12:11:36.868Z,20.33
2023-01-30T12:14:19.155Z,18.42
2023-01-30T12:16:52.628Z,23.38
2023-01-30T12:19:45.025Z,23.98
2023-01-30T12:22:46.363Z,20.40
2023-01-30T12:25:51.870Z,21.90
2023-01-30T12:29:03.319Z,19.77
2023-01-30T12:31:39.305Z,22.20
2023-01-30T12:34:09.371Z,21.77
2023-01-30T12:36:45.085Z,19.38
2023-01-30T12:39:38.866Z,21.55
2023-01-30T12:42:41.082Z,20.55
2023-01-30T12:45:28.063Z,21.77
2023-01-30T12:48:26.514Z,21.45
2023-01-30T12:50:56.299Z,20.20
2023-01-30T12:53:25.618Z,20.25
2023-01-30T12:56:17.109Z,19.88
2023-01-30T12:58:50.037Z,19.88
2023-01-30T13:01:34.062Z,20.23
2023-01-30T13:04:19.822Z,19.60
2023-01-30T13:07:05.308Z,18.17
2023-01-30T13:09:55.371Z,19.85
2023-01-30T13:12:46.633Z,18.13
2023-01-30T13:15:30.997Z,17.98
2023-01-30T13:18:06.650Z,18.98
2023-01-30T13:21:00.320Z,19.38
2023-01-30T13:23:41.566Z,19.15
2023-01-30T13:26:13.771Z,18.70
2023-01-30T13:28:46.339Z,19.05
2023-01-30T13:31:18.218Z,18.52
2023-01-30T13:33:49.474Z,16.92
2023-01-30T13:36:21.965Z,19.02
2023-01-30T13:39:03.307Z,18.00
2023-01-30T13:41:33.915Z,18.30
2023-01-30T13:44:06.771Z,18.92
2023-01-30T13:46:37.897Z,16.42
2023-01-30T13:49:25.712Z,18.52
2023-01-30T13:51:58.444Z,18.85
2023-01-30T13:54:40.300Z,17.58
2023-01-30T13:57:25.821Z,18.13
2023-01-30T14:00:17.240Z,17.02
2023-01-30T14:03:22.961Z,18.30
2023-01-30T14:05:57.350Z,17.77
2023-01-30T14:08:26.945Z,17.40
2023-01-30T14:10:55.815Z,18.23
2023-01-30T14:13:24.654Z,17.65
2023-01-30T14:16:04.427Z,27.25
2023-01-30T14:18:35.995Z,19.27
2023-01-30T14:21:11.815Z,17.40
2023-01-30T14:23:39.710Z,18.30
2023-01-30T14:26:06.438Z,27.13
2023-01-30T14:28:33.113Z,18.63
2023-01-30T14:31:03.625Z,17.25
2023-01-30T14:33:47.891Z,20.00
2023-01-30T14:36:14.663Z,29.27
2023-01-30T14:38:42.066Z,19.90
2023-01-30T14:41:24.074Z,19.27
2023-01-30T14:43:53.614Z,17.27
2023-01-30T14:46:20.649Z,18.55
2023-01-30T14:49:04.446Z,16.00
2023-01-30T14:51:44.312Z,17.02
2023-01-30T14:54:14.661Z,17.05
2023-01-30T14:57:00.135Z,17.05
2023-01-30T14:59:38.122Z,17.92
2023-01-30T15:02:24.240Z,45.53
2023-01-30T15:05:09.782Z,19.75
2023-01-30T15:07:44.457Z,19.52
2023-01-30T15:10:48.284Z,20.35
2023-01-30T15:13:22.479Z,17.38
2023-01-30T15:16:09.651Z,17.55
2023-01-30T15:18:55.495Z,33.15
2023-01-30T15:21:41.238Z,16.90
2023-01-30T15:24:32.890Z,20.23
2023-01-30T15:27:20.230Z,16.98
2023-01-30T15:30:17.423Z,16.67
2023-01-30T15:32:45.545Z,18.00
2023-01-30T15:35:12.556Z,18.30
2023-01-30T15:37:40.580Z,24.35
2023-01-30T15:40:17.349Z,19.55
2023-01-30T15:43:11.422Z,18.38
2023-01-30T15:46:06.424Z,18.70
2023-01-30T15:49:05.750Z,19.25
2023-01-30T15:51:36.451Z,18.25
2023-01-30T15:54:12.897Z,20.27
2023-01-30T15:56:43.407Z,19.58
2023-01-30T15:59:39.024Z,18.58
2023-01-30T16:02:38.500Z,20.45
2023-01-30T16:05:25.133Z,18.80
2023-01-30T16:07:59.127Z,19.55
2023-01-30T16:10:31.245Z,19.05
2023-01-30T16:13:03.905Z,18.55
2023-01-30T16:15:40.639Z,16.00
2023-01-30T16:18:17.711Z,18.35
2023-01-30T16:23:42.111Z,17.77
2023-01-30T16:26:22.215Z,19.00
2023-01-30T16:28:51.891Z,19.42
2023-01-30T16:31:20.353Z,19.33
2023-01-30T16:33:55.148Z,16.02
2023-01-30T16:36:23.060Z,16.48
2023-01-30T16:39:03.668Z,17.90
2023-01-30T16:41:41.300Z,16.05
2023-01-30T16:44:21.423Z,13.38
2023-01-30T16:47:23.840Z,14.50
2023-01-30T16:49:54.213Z,18.63
2023-01-30T16:52:37.372Z,16.88
2023-01-30T16:55:09.011Z,18.23
2023-01-30T16:57:49.714Z,19.38
2023-01-30T17:00:21.885Z,17.08
2023-01-30T17:02:56.613Z,17.48
2023-01-30T17:05:26.816Z,16.92
2023-01-30T17:07:55.791Z,17.33
2023-01-30T17:10:29.501Z,17.77
2023-01-30T17:12:57.435Z,11.25
2023-01-30T17:15:30.971Z,14.38
2023-01-30T17:17:58.567Z,16.88
2023-01-30T17:23:05.789Z,15.15
2023-01-30T17:25:38.392Z,16.88
2023-01-30T17:28:08.351Z,11.40
2023-01-30T17:30:36.441Z,16.77
2023-01-30T17:33:03.820Z,16.58
2023-01-30T17:35:31.001Z,12.50
2023-01-30T17:38:05.279Z,16.13
2023-01-30T17:40:37.905Z,22.27
2023-01-30T17:43:05.822Z,22.17
2023-01-30T17:45:32.947Z,17.95
2023-01-30T17:50:28.596Z,21.38
2023-01-30T17:52:55.901Z,20.55
2023-01-30T17:55:23.188Z,19.50
2023-01-30T17:57:50.249Z,15.93
2023-01-30T18:02:47.095Z,19.38
2023-01-30T18:05:14.751Z,18.58
2023-01-30T18:07:42.801Z,22.48
2023-01-30T18:10:17.473Z,19.55
2023-01-30T18:12:45.625Z,13.98
2023-01-30T18:15:15.139Z,17.73
2023-01-30T18:17:47.007Z,18.48
2023-01-30T18:20:17.238Z,19.60
2023-01-30T18:22:44.145Z,18.83
2023-01-30T18:25:13.468Z,17.98
2023-01-30T18:27:43.891Z,17.75
2023-01-30T18:30:17.175Z,21.10
2023-01-30T18:32:52.965Z,18.75
2023-01-30T18:35:20.154Z,20.13
2023-01-30T18:37:46.827Z,21.15
2023-01-30T18:40:15.235Z,18.73
2023-01-30T18:42:42.208Z,19.40
2023-01-30T18:45:09.377Z,19.58
2023-01-30T18:50:02.769Z,17.25
2023-01-30T18:52:29.502Z,17.05
2023-01-30T18:54:56.349Z,18.98
2023-01-30T18:57:23.024Z,18.58
2023-01-30T18:59:49.768Z,16.55
2023-01-30T19:02:16.706Z,13.98
2023-01-30T19:04:43.498Z,20.35
2023-01-30T19:07:11.135Z,16.20
2023-01-30T19:09:38.101Z,19.75
2023-01-30T19:12:23.919Z,22.52
2023-01-30T19:14:50.698Z,20.92
2023-01-30T19:17:17.401Z,22.88
2023-01-30T19:19:44.776Z,14.70
2023-01-30T19:22:11.487Z,23.33
2023-01-30T19:24:38.225Z,24.42
2023-01-30T19:27:05.447Z,22.40
2023-01-30T19:29:32.283Z,22.52
2023-01-30T19:31:59.081Z,16.25
2023-01-30T19:34:25.841Z,22.70
2023-01-30T19:36:57.606Z,22.27
2023-01-30T19:39:24.378Z,17.50
2023-01-30T19:41:51.057Z,25.63
2023-01-30T19:44:17.852Z,22.00
2023-01-30T19:46:45.046Z,20.80
2023-01-30T19:49:12.071Z,23.33
2023-01-30T19:51:38.802Z,25.38
2023-01-30T19:54:08.177Z,28.73
2023-01-30T19:56:36.621Z,28.40
2023-01-30T19:59:03.637Z,28.45
2023-01-30T20:01:33.242Z,33.03
2023-01-30T20:04:02.005Z,26.00
2023-01-30T20:06:31.993Z,29.67
2023-01-30T20:09:01.954Z,28.05
2023-01-30T20:11:29.856Z,35.42
2023-01-30T20:13:57.071Z,34.88
2023-01-30T20:21:27.940Z,23.75
2023-01-30T20:23:55.283Z,35.42
2023-01-30T20:26:28.226Z,32.13
2023-01-30T20:28:56.030Z,26.58
2023-01-30T20:31:25.570Z,25.00
2023-01-30T20:33:55.724Z,27.70
2023-01-30T20:36:23.229Z,44.55
2023-01-30T20:38:50.727Z,22.63
2023-01-30T20:41:23.662Z,23.80
2023-01-30T20:43:53.929Z,23.45
2023-01-30T20:46:23.234Z,22.50
2023-01-30T20:48:52.841Z,20.95
2023-01-30T20:51:28.934Z,20.27
2023-01-30T20:54:00.214Z,18.90
2023-01-30T20:56:35.194Z,20.23
2023-01-30T20:59:04.706Z,16.67
2023-01-30T21:01:31.689Z,16.67
2023-01-30T21:03:58.548Z,16.70
2023-01-30T21:06:41.774Z,17.90
2023-01-30T21:09:13.054Z,15.82
2023-01-30T21:11:40.139Z,14.70
2023-01-30T21:14:07.441Z,15.63
2023-01-30T21:16:35.764Z,15.48
2023-01-30T21:19:06.416Z,14.40
2023-01-30T21:21:46.958Z,8.75
2023-01-30T21:24:14.702Z,15.85
2023-01-30T21:26:46.087Z,15.82
2023-01-30T21:29:18.091Z,19.40
2023-01-30T21:31:46.225Z,18.20
2023-01-30T21:34:13.452Z,18.90
2023-01-30T21:39:25.985Z,18.92
2023-01-30T21:42:11.303Z,18.35
2023-01-30T21:44:38.266Z,17.17
2023-01-30T21:47:06.857Z,14.82
2023-01-30T21:49:34.465Z,14.45
2023-01-30T21:52:01.191Z,13.70
2023-01-30T21:54:28.201Z,7.60
2023-01-30T21:56:55.604Z,10.02
2023-01-30T21:59:22.437Z,11.18
2023-01-30T22:01:49.380Z,12.10
2023-01-30T22:04:16.698Z,12.55
2023-01-30T22:09:14.171Z,9.15
2023-01-30T22:11:41.446Z,10.35
2023-01-30T22:16:34.970Z,11.00
2023-01-30T22:19:04.420Z,11.57
2023-01-30T22:21:36.696Z,11.05
2023-01-30T22:24:05.645Z,12.68
2023-01-30T22:26:32.570Z,12.55
2023-01-30T22:29:01.073Z,14.45
2023-01-30T22:31:31.151Z,13.48
2023-01-30T22:33:58.097Z,13.00
2023-01-30T22:36:27.450Z,12.68
2023-01-30T22:38:54.949Z,11.73
2023-01-30T22:41:24.298Z,12.23
2023-01-30T22:43:59.105Z,9.00
2023-01-30T22:46:29.147Z,9.75
2023-01-30T22:48:55.988Z,11.73
2023-01-30T22:51:25.380Z,13.68
2023-01-30T22:53:54.876Z,12.85
2023-01-30T22:56:24.291Z,11.15
2023-01-30T22:58:51.364Z,10.23
2023-01-30T23:03:54.982Z,12.88
2023-01-30T23:06:22.706Z,12.52
2023-01-30T23:08:49.905Z,13.32
2023-01-30T23:13:50.716Z,14.15
2023-01-30T23:16:20.461Z,14.35
2023-01-30T23:18:56.337Z,12.32
2023-01-30T23:21:38.004Z,11.13
2023-01-30T23:24:10.600Z,11.57
2023-01-30T23:26:40.807Z,12.25
2023-01-30T23:29:09.982Z,11.77
2023-01-30T23:31:37.024Z,12.43
2023-01-30T23:34:06.351Z,14.30
2023-01-30T23:36:34.399Z,14.10
2023-01-30T23:39:01.662Z,15.80
2023-01-30T23:41:31.169Z,14.25
2023-01-30T23:43:59.599Z,14.52
2023-01-30T23:46:36.331Z,15.02
2023-01-30T23:49:08.808Z,14.23
2023-01-30T23:51:37.635Z,14.13
2023-01-30T23:54:05.088Z,13.52
2023-01-30T23:56:35.601Z,13.23
2023-01-30T23:59:03.033Z,11.52
